Time;durP1;ratioP1;P1;durP2;ratioP2;P2;SDS_P1;SDS_P2;PMS_P1;PMS_P2;Temp;Humidity;BMP_temperature;BMP_pressure;BME280_temperature;BME280_humidity;BME280_pressure;Samples;Min_cycle;Max_cycle;Signal;HPM_P1;HPM_P2
2022/04/06 00:00:29;;;;;;;17.20;3.75;;;;;;;;;;5123229;27;20054;-36
2022/04/06 00:02:55;;;;;;;14.27;3.72;;;;;;;;;;5123881;27;20052;-35
2022/04/06 00:05:22;;;;;;;13.95;3.67;;;;;;;;;;5124142;27;20047;-37
2022/04/06 00:07:49;;;;;;;12.57;3.50;;;;;;;;;;5122529;27;20059;-36
2022/04/06 00:10:16;;;;;;;17.85;3.97;;;;;;;;;;5122487;27;20047;-37
2022/04/06 00:12:42;;;;;;;14.88;3.90;;;;;;;;;;5123557;27;20055;-38
2022/04/06 00:15:10;;;;;;;13.93;3.67;;;;;;;;;;5122243;27;20047;-37
2022/04/06 00:17:36;;;;;;;13.55;3.38;;;;;;;;;;5122653;27;20077;-37
2022/04/06 00:20:03;;;;;;;13.05;3.40;;;;;;;;;;5124221;27;20472;-37
2022/04/06 00:22:29;;;;;;;13.50;3.67;;;;;;;;;;5122820;27;20115;-37
2022/04/06 00:24:58;;;;;;;14.45;3.58;;;;;;;;;;5124029;28;20108;-37
2022/04/06 00:27:25;;;;;;;11.63;3.60;;;;;;;;;;5123370;27;20055;-37
2022/04/06 00:29:51;;;;;;;15.00;3.60;;;;;;;;;;5123112;28;20056;-37
2022/04/06 00:32:17;;;;;;;13.02;3.20;;;;;;;;;;5123790;28;20077;-37
2022/04/06 00:37:27;;;;;;;12.95;3.45;;;;;;;;;;5124182;28;20100;-37
2022/04/06 00:39:53;;;;;;;12.23;3.50;;;;;;;;;;5123427;28;20369;-37
2022/04/06 00:42:21;;;;;;;10.35;3.50;;;;;;;;;;5123962;28;20043;-37
2022/04/06 00:44:48;;;;;;;11.07;3.08;;;;;;;;;;5124591;28;20044;-40
2022/04/06 00:47:14;;;;;;;13.20;3.55;;;;;;;;;;5127000;28;20051;-48
2022/04/06 00:49:41;;;;;;;13.00;3.42;;;;;;;;;;5126353;28;20043;-39
2022/04/06 00:52:08;;;;;;;11.73;3.10;;;;;;;;;;5125480;28;20390;-37
2022/04/06 00:54:35;;;;;;;13.77;3.55;;;;;;;;;;5124273;28;20345;-38
2022/04/06 00:57:01;;;;;;;12.68;3.00;;;;;;;;;;5123731;28;20056;-38
2022/04/06 00:59:30;;;;;;;10.70;3.10;;;;;;;;;;5123325;28;20053;-37
2022/04/06 01:01:57;;;;;;;9.30;3.20;;;;;;;;;;5123277;27;20051;-36
2022/04/06 01:04:23;;;;;;;10.35;3.47;;;;;;;;;;5123933;28;20059;-38
2022/04/06 01:06:50;;;;;;;13.77;3.20;;;;;;;;;;5123634;28;20376;-38
2022/04/06 01:09:17;;;;;;;11.88;3.30;;;;;;;;;;5123874;28;20096;-37
2022/04/06 01:11:45;;;;;;;11.25;3.17;;;;;;;;;;5122895;28;20101;-38
2022/04/06 01:14:12;;;;;;;9.70;3.03;;;;;;;;;;5123867;28;20066;-36
2022/04/06 01:16:40;;;;;;;9.80;3.00;;;;;;;;;;5122921;28;20051;-36
2022/04/06 01:19:06;;;;;;;9.13;3.20;;;;;;;;;;5122667;28;20051;-35
2022/04/06 01:21:32;;;;;;;11.65;3.35;;;;;;;;;;5123618;28;20059;-35
2022/04/06 01:24:00;;;;;;;11.60;3.17;;;;;;;;;;5122856;28;20058;-37
2022/04/06 01:26:26;;;;;;;9.95;3.20;;;;;;;;;;5123681;28;20043;-38
2022/04/06 01:28:53;;;;;;;9.50;3.30;;;;;;;;;;5122357;28;20052;-34
2022/04/06 01:31:19;;;;;;;11.60;3.30;;;;;;;;;;5124159;28;20051;-36
2022/04/06 01:33:46;;;;;;;11.32;3.08;;;;;;;;;;5124750;27;20043;-36
2022/04/06 01:36:12;;;;;;;11.60;3.15;;;;;;;;;;5127578;27;20055;-36
2022/04/06 01:38:38;;;;;;;11.70;3.15;;;;;;;;;;5130085;27;20051;-38
2022/04/06 01:41:06;;;;;;;9.85;2.95;;;;;;;;;;5130629;27;20104;-35
2022/04/06 01:43:32;;;;;;;10.35;2.80;;;;;;;;;;5130137;27;20062;-35
2022/04/06 01:45:59;;;;;;;11.88;2.97;;;;;;;;;;5127234;27;20055;-37
2022/04/06 01:48:25;;;;;;;11.18;3.00;;;;;;;;;;5129788;27;20068;-45
2022/04/06 01:53:35;;;;;;;9.93;3.00;;;;;;;;;;5127776;27;20121;-39
2022/04/06 01:56:02;;;;;;;9.45;2.67;;;;;;;;;;5126471;27;20071;-36
2022/04/06 01:58:29;;;;;;;9.20;2.65;;;;;;;;;;5126507;27;20112;-36
2022/04/06 02:00:56;;;;;;;8.07;2.60;;;;;;;;;;5125637;27;20051;-36
2022/04/06 02:03:22;;;;;;;10.57;3.10;;;;;;;;;;5125930;27;20073;-35
2022/04/06 02:05:48;;;;;;;9.27;2.70;;;;;;;;;;5125383;27;20052;-36
2022/04/06 02:08:14;;;;;;;10.25;2.58;;;;;;;;;;5126543;27;20437;-36
2022/04/06 02:10:41;;;;;;;8.65;2.90;;;;;;;;;;5126305;27;20047;-37
2022/04/06 02:13:07;;;;;;;11.48;2.90;;;;;;;;;;5126820;27;20127;-36
2022/04/06 02:15:37;;;;;;;8.27;2.70;;;;;;;;;;5124957;27;20058;-35
2022/04/06 02:18:03;;;;;;;8.82;3.00;;;;;;;;;;5125812;27;20047;-38
2022/04/06 02:20:30;;;;;;;8.60;2.70;;;;;;;;;;5125490;27;20116;-36
2022/04/06 02:22:56;;;;;;;10.80;2.92;;;;;;;;;;5125338;27;20043;-35
2022/04/06 02:25:22;;;;;;;9.88;2.63;;;;;;;;;;5124910;27;20054;-35
2022/04/06 02:27:49;;;;;;;8.27;2.50;;;;;;;;;;5124736;27;20123;-36
2022/04/06 02:30:17;;;;;;;8.90;2.90;;;;;;;;;;5125418;27;20043;-36
2022/04/06 02:32:44;;;;;;;8.10;2.72;;;;;;;;;;5126040;27;20520;-35
2022/04/06 02:35:11;;;;;;;9.25;2.90;;;;;;;;;;5126760;27;20054;-37
2022/04/06 02:37:39;;;;;;;8.30;2.70;;;;;;;;;;5126369;27;20437;-45
2022/04/06 02:40:06;;;;;;;10.20;2.80;;;;;;;;;;5125458;27;20120;-42
2022/04/06 02:42:32;;;;;;;10.38;2.60;;;;;;;;;;5125931;27;20120;-38
2022/04/06 02:44:58;;;;;;;7.85;2.50;;;;;;;;;;5126040;27;20062;-56
2022/04/06 02:47:25;;;;;;;7.97;2.72;;;;;;;;;;5126746;27;20051;-38
2022/04/06 02:49:52;;;;;;;9.20;2.78;;;;;;;;;;5124372;27;20047;-36
2022/04/06 02:52:18;;;;;;;8.05;2.60;;;;;;;;;;5125911;27;20051;-36
2022/04/06 02:54:45;;;;;;;10.40;2.90;;;;;;;;;;5125433;27;20048;-36
2022/04/06 02:57:11;;;;;;;6.95;2.47;;;;;;;;;;5125644;27;20058;-36
2022/04/06 02:59:39;;;;;;;9.27;2.60;;;;;;;;;;5124629;27;20069;-36
2022/04/06 03:02:05;;;;;;;;;;;;;;;;;;5126474;27;20139;-36
2022/04/06 03:04:31;;;;;;;9.38;2.55;;;;;;;;;;5125076;27;19920;-36
2022/04/06 03:06:59;;;;;;;7.13;2.50;;;;;;;;;;5125472;27;20472;-35
2022/04/06 03:09:25;;;;;;;9.43;2.58;;;;;;;;;;5125742;27;20074;-50
2022/04/06 03:11:51;;;;;;;10.90;2.70;;;;;;;;;;5126612;27;20066;-36
2022/04/06 03:14:18;;;;;;;8.75;2.45;;;;;;;;;;5122909;27;20062;-35
2022/04/06 03:16:44;;;;;;;8.75;2.53;;;;;;;;;;5125362;27;20139;-38
2022/04/06 03:19:10;;;;;;;7.28;2.38;;;;;;;;;;5123464;27;20071;-38
2022/04/06 03:21:36;;;;;;;9.55;2.63;;;;;;;;;;5125350;27;20068;-41
2022/04/06 03:24:04;;;;;;;8.07;2.50;;;;;;;;;;5127658;27;20103;-39
2022/04/06 03:26:31;;;;;;;9.00;2.40;;;;;;;;;;5126640;27;20043;-48
2022/04/06 03:28:57;;;;;;;8.02;2.50;;;;;;;;;;5127104;27;20055;-37
2022/04/06 03:31:24;;;;;;;6.72;2.30;;;;;;;;;;5126214;27;20049;-37
2022/04/06 03:33:50;;;;;;;7.80;2.50;;;;;;;;;;5125095;27;20089;-38
2022/04/06 03:36:16;;;;;;;7.75;2.60;;;;;;;;;;5123926;27;20047;-36
2022/04/06 03:38:42;;;;;;;6.65;2.70;;;;;;;;;;5123321;27;20071;-36
2022/04/06 03:41:10;;;;;;;9.13;2.55;;;;;;;;;;5122430;27;20058;-36
2022/04/06 03:43:37;;;;;;;7.07;2.38;;;;;;;;;;5123974;27;20043;-36
2022/04/06 03:46:03;;;;;;;6.75;2.40;;;;;;;;;;5124928;27;20109;-36
2022/04/06 03:48:29;;;;;;;7.57;2.53;;;;;;;;;;5123275;27;20456;-36
2022/04/06 03:50:56;;;;;;;6.47;2.13;;;;;;;;;;5123674;27;20409;-36
2022/04/06 03:53:22;;;;;;;8.23;2.35;;;;;;;;;;5122156;27;20043;-36
2022/04/06 03:55:49;;;;;;;7.78;2.40;;;;;;;;;;5124677;27;20104;-36
2022/04/06 03:58:16;;;;;;;6.85;2.30;;;;;;;;;;5123880;27;20131;-36
2022/04/06 04:00:44;;;;;;;5.82;2.20;;;;;;;;;;5124794;27;20103;-37
2022/04/06 04:03:10;;;;;;;7.90;2.53;;;;;;;;;;5123543;27;20063;-37
2022/04/06 04:05:36;;;;;;;6.50;2.22;;;;;;;;;;5124058;27;20047;-36
2022/04/06 04:08:02;;;;;;;6.10;2.17;;;;;;;;;;5123402;27;20521;-36
2022/04/06 04:10:29;;;;;;;8.45;2.38;;;;;;;;;;5124169;27;20108;-36
2022/04/06 04:12:55;;;;;;;7.30;2.30;;;;;;;;;;5123441;27;20104;-36
2022/04/06 04:15:23;;;;;;;5.80;2.40;;;;;;;;;;5123338;27;20058;-36
2022/04/06 04:17:49;;;;;;;7.75;2.50;;;;;;;;;;5123005;27;20047;-35
2022/04/06 04:20:16;;;;;;;7.18;2.45;;;;;;;;;;5123844;27;20059;-37
2022/04/06 04:22:42;;;;;;;7.63;2.45;;;;;;;;;;5123567;27;20141;-36
2022/04/06 04:25:10;;;;;;;6.63;2.20;;;;;;;;;;5123403;27;20058;-37
2022/04/06 04:27:36;;;;;;;6.88;2.28;;;;;;;;;;5122779;27;20377;-42
2022/04/06 04:30:03;;;;;;;6.38;2.20;;;;;;;;;;5123953;27;20142;-37
2022/04/06 04:32:31;;;;;;;6.32;2.20;;;;;;;;;;5121625;28;20050;-40
2022/04/06 04:34:59;;;;;;;4.65;2.20;;;;;;;;;;5123246;28;20054;-36
2022/04/06 04:37:25;;;;;;;8.23;2.40;;;;;;;;;;5123932;28;20058;-36
2022/04/06 04:39:51;;;;;;;7.22;2.35;;;;;;;;;;5122315;28;20476;-36
2022/04/06 04:42:17;;;;;;;8.25;2.40;;;;;;;;;;5122887;28;20134;-36
2022/04/06 04:44:44;;;;;;;7.25;2.33;;;;;;;;;;5123630;28;20097;-55
2022/04/06 04:47:10;;;;;;;7.03;2.25;;;;;;;;;;5124158;28;20055;-36
2022/04/06 04:49:38;;;;;;;8.30;2.17;;;;;;;;;;5121544;28;20399;-36
2022/04/06 04:52:04;;;;;;;6.20;2.30;;;;;;;;;;5123003;28;20048;-36
2022/04/06 04:54:31;;;;;;;5.20;2.28;;;;;;;;;;5123470;28;20043;-36
2022/04/06 04:56:57;;;;;;;4.60;2.10;;;;;;;;;;5123560;28;20047;-37
2022/04/06 04:59:25;;;;;;;6.40;2.17;;;;;;;;;;5123201;28;20383;-37
2022/04/06 05:01:51;;;;;;;6.55;2.30;;;;;;;;;;5123749;28;20039;-37
2022/04/06 05:04:17;;;;;;;6.05;2.20;;;;;;;;;;5123421;28;20525;-37
2022/04/06 05:06:45;;;;;;;4.90;2.22;;;;;;;;;;5122094;28;20059;-37
2022/04/06 05:09:11;;;;;;;9.05;2.42;;;;;;;;;;5123507;27;20878;-37
2022/04/06 05:11:38;;;;;;;6.68;2.13;;;;;;;;;;5127004;27;20048;-37
2022/04/06 05:14:04;;;;;;;7.13;2.08;;;;;;;;;;5127125;27;20070;-37
2022/04/06 05:16:31;;;;;;;6.22;2.10;;;;;;;;;;5128660;27;20455;-39
2022/04/06 05:18:57;;;;;;;5.07;2.13;;;;;;;;;;5124909;27;20116;-39
2022/04/06 05:21:24;;;;;;;5.80;2.22;;;;;;;;;;5126829;27;20048;-39
2022/04/06 05:23:51;;;;;;;5.88;2.10;;;;;;;;;;5126501;27;20048;-39
2022/04/06 05:26:18;;;;;;;6.93;2.20;;;;;;;;;;5126849;27;20047;-39
2022/04/06 05:28:44;;;;;;;6.90;2.20;;;;;;;;;;5126491;27;20052;-40
2022/04/06 05:31:10;;;;;;;6.13;2.00;;;;;;;;;;5126596;27;20099;-39
2022/04/06 05:33:36;;;;;;;5.88;2.30;;;;;;;;;;5126024;27;20058;-38
2022/04/06 05:36:03;;;;;;;6.63;2.42;;;;;;;;;;5125483;27;20084;-39
2022/04/06 05:38:30;;;;;;;6.25;2.22;;;;;;;;;;5126078;27;20047;-39
2022/04/06 05:40:58;;;;;;;7.32;2.00;;;;;;;;;;5127153;27;20138;-39
2022/04/06 05:43:24;;;;;;;6.38;2.33;;;;;;;;;;5125792;27;20044;-38
2022/04/06 05:45:50;;;;;;;6.13;2.22;;;;;;;;;;5125172;27;20051;-40
2022/04/06 05:48:17;;;;;;;6.22;2.22;;;;;;;;;;5126119;27;20043;-39
2022/04/06 05:50:43;;;;;;;6.90;2.28;;;;;;;;;;5125742;27;20051;-38
2022/04/06 05:53:09;;;;;;;4.57;1.90;;;;;;;;;;5125446;27;20054;-39
2022/04/06 05:55:36;;;;;;;5.18;2.08;;;;;;;;;;5126019;27;20112;-38
2022/04/06 05:58:03;;;;;;;5.35;2.10;;;;;;;;;;5125741;27;20518;-38
2022/04/06 06:00:29;;;;;;;5.90;2.00;;;;;;;;;;5126655;27;20455;-39
2022/04/06 06:02:56;;;;;;;6.30;2.00;;;;;;;;;;5126048;27;20433;-39
2022/04/06 06:05:22;;;;;;;7.25;2.42;;;;;;;;;;5125536;27;20096;-39
2022/04/06 06:07:48;;;;;;;4.97;2.20;;;;;;;;;;5125192;27;20047;-38
2022/04/06 06:10:15;;;;;;;5.65;2.10;;;;;;;;;;5126111;27;20047;-39
2022/04/06 06:12:41;;;;;;;5.13;2.03;;;;;;;;;;5125568;27;20047;-39
2022/04/06 06:15:09;;;;;;;6.88;2.08;;;;;;;;;;5124862;27;20101;-39
2022/04/06 06:17:39;;;;;;;7.03;2.10;;;;;;;;;;5126893;27;20043;-53
2022/04/06 06:20:06;;;;;;;6.03;1.90;;;;;;;;;;5126284;27;20051;-41
2022/04/06 06:22:33;;;;;;;11.05;2.15;;;;;;;;;;5125207;27;20051;-41
2022/04/06 06:24:59;;;;;;;5.38;2.05;;;;;;;;;;5125329;27;20119;-41
2022/04/06 06:27:25;;;;;;;5.85;2.05;;;;;;;;;;5127353;27;20133;-38
2022/04/06 06:29:52;;;;;;;4.65;1.80;;;;;;;;;;5126335;27;20104;-39
2022/04/06 06:32:19;;;;;;;6.20;1.98;;;;;;;;;;5124643;27;20051;-39
2022/04/06 06:34:45;;;;;;;5.68;1.98;;;;;;;;;;5126110;27;20421;-39
2022/04/06 06:37:12;;;;;;;4.18;2.00;;;;;;;;;;5124498;27;20051;-39
2022/04/06 06:39:38;;;;;;;6.13;2.03;;;;;;;;;;5125943;27;20050;-39
2022/04/06 06:42:05;;;;;;;5.63;2.00;;;;;;;;;;5123641;27;20047;-38
2022/04/06 06:44:31;;;;;;;7.03;2.20;;;;;;;;;;5125875;27;20467;-47
2022/04/06 06:46:57;;;;;;;5.93;1.92;;;;;;;;;;5125121;27;20528;-39
2022/04/06 06:49:25;;;;;;;7.00;2.15;;;;;;;;;;5124102;27;20112;-39
2022/04/06 06:51:51;;;;;;;5.18;1.95;;;;;;;;;;5125030;27;20402;-39
2022/04/06 06:54:19;;;;;;;5.53;2.13;;;;;;;;;;5123502;27;20051;-39
2022/04/06 06:56:45;;;;;;;7.97;1.90;;;;;;;;;;5125343;27;20458;-39
2022/04/06 06:59:11;;;;;;;8.95;2.30;;;;;;;;;;5124330;27;20047;-41
2022/04/06 07:01:37;;;;;;;7.57;2.08;;;;;;;;;;5124108;27;20390;-39
2022/04/06 07:04:04;;;;;;;6.07;2.10;;;;;;;;;;5124976;27;20429;-39
2022/04/06 07:06:31;;;;;;;5.25;2.00;;;;;;;;;;5125326;27;20070;-39
2022/04/06 07:08:58;;;;;;;6.60;2.03;;;;;;;;;;5124786;27;20057;-39
2022/04/06 07:11:24;;;;;;;14.60;3.35;;;;;;;;;;5124241;27;20055;-39
2022/04/06 07:13:50;;;;;;;11.68;3.05;;;;;;;;;;5124191;27;20056;-40
2022/04/06 07:16:16;;;;;;;16.67;4.93;;;;;;;;;;5122719;27;20058;-38
2022/04/06 07:18:43;;;;;;;18.35;6.30;;;;;;;;;;5123807;27;20134;-39
2022/04/06 07:21:09;;;;;;;15.43;5.07;;;;;;;;;;5124722;27;20059;-38
2022/04/06 07:23:37;;;;;;;14.85;5.65;;;;;;;;;;5123656;27;20108;-38
2022/04/06 07:26:03;;;;;;;;;;;;;;;;;;5125447;27;20051;-39
2022/04/06 07:28:29;;;;;;;15.35;5.80;;;;;;;;;;5124161;27;19931;-39
2022/04/06 07:30:56;;;;;;;12.93;4.65;;;;;;;;;;5122995;27;20047;-39
2022/04/06 07:33:23;;;;;;;12.43;4.60;;;;;;;;;;5123906;27;20054;-39
2022/04/06 07:35:49;;;;;;;16.73;6.40;;;;;;;;;;5124498;27;20550;-39
2022/04/06 07:38:15;;;;;;;13.07;5.45;;;;;;;;;;5125133;27;20047;-39
2022/04/06 07:40:43;;;;;;;14.77;5.60;;;;;;;;;;5124218;27;20058;-39
2022/04/06 07:43:10;;;;;;;12.77;6.03;;;;;;;;;;5124378;27;20050;-41
2022/04/06 07:45:37;;;;;;;16.67;6.30;;;;;;;;;;5124685;27;20044;-41
2022/04/06 07:48:04;;;;;;;11.73;5.78;;;;;;;;;;5123885;27;20051;-41
2022/04/06 07:50:30;;;;;;;13.65;6.20;;;;;;;;;;5124762;27;20059;-39
2022/04/06 07:52:57;;;;;;;14.90;5.68;;;;;;;;;;5123101;27;20067;-39
2022/04/06 07:55:23;;;;;;;14.35;6.30;;;;;;;;;;5124599;27;20055;-39
2022/04/06 07:57:51;;;;;;;14.52;6.07;;;;;;;;;;5123726;27;20424;-39
2022/04/06 08:00:17;;;;;;;12.00;5.22;;;;;;;;;;5124310;27;20119;-39
2022/04/06 08:02:44;;;;;;;14.88;5.82;;;;;;;;;;5123740;27;20043;-40
2022/04/06 08:05:10;;;;;;;11.05;4.60;;;;;;;;;;5124725;27;20139;-39
2022/04/06 08:07:39;;;;;;;12.25;3.85;;;;;;;;;;5120833;27;20441;-39
2022/04/06 08:10:06;;;;;;;11.40;3.83;;;;;;;;;;5124013;27;20052;-39
2022/04/06 08:12:33;;;;;;;12.55;3.88;;;;;;;;;;5123683;27;20117;-39
2022/04/06 08:15:00;;;;;;;9.40;3.40;;;;;;;;;;5124321;27;20054;-39
2022/04/06 08:17:30;;;;;;;9.88;3.58;;;;;;;;;;5123675;27;20051;-39
2022/04/06 08:19:56;;;;;;;10.07;3.58;;;;;;;;;;5122594;27;20380;-39
2022/04/06 08:22:22;;;;;;;11.88;3.47;;;;;;;;;;5122650;27;20430;-39
2022/04/06 08:24:49;;;;;;;7.90;3.20;;;;;;;;;;5124380;27;20047;-39
2022/04/06 08:27:16;;;;;;;11.43;3.20;;;;;;;;;;5123852;27;20414;-39
2022/04/06 08:29:42;;;;;;;10.68;3.08;;;;;;;;;;5124197;27;20056;-38
2022/04/06 08:32:10;;;;;;;10.18;3.10;;;;;;;;;;5123104;28;20100;-38
2022/04/06 08:34:36;;;;;;;16.65;7.30;;;;;;;;;;5123047;28;20475;-40
2022/04/06 08:37:02;;;;;;;18.98;9.45;;;;;;;;;;5125867;28;20369;-37
2022/04/06 08:39:29;;;;;;;17.33;8.98;;;;;;;;;;5125574;28;20054;-41
2022/04/06 08:41:55;;;;;;;17.42;9.07;;;;;;;;;;5124903;28;20429;-37
2022/04/06 08:44:22;;;;;;;16.58;8.40;;;;;;;;;;5125208;27;20126;-38
2022/04/06 08:46:51;;;;;;;15.07;7.35;;;;;;;;;;5128300;27;20055;-38
2022/04/06 08:49:18;;;;;;;15.07;7.03;;;;;;;;;;5126512;27;20460;-38
2022/04/06 08:51:45;;;;;;;12.85;5.97;;;;;;;;;;5128744;27;20055;-38
2022/04/06 08:54:11;;;;;;;13.43;5.80;;;;;;;;;;5127896;27;20051;-38
2022/04/06 08:56:38;;;;;;;12.73;5.20;;;;;;;;;;5127243;27;20059;-38
2022/04/06 08:59:04;;;;;;;11.48;5.07;;;;;;;;;;5127896;27;20468;-38
2022/04/06 09:01:33;;;;;;;10.68;4.60;;;;;;;;;;5127080;27;20059;-38
2022/04/06 09:04:00;;;;;;;12.02;4.60;;;;;;;;;;5126798;27;20134;-38
2022/04/06 09:06:32;;;;;;;12.82;4.63;;;;;;;;;;5127694;27;20520;-38
2022/04/06 09:08:58;;;;;;;10.35;3.95;;;;;;;;;;5128001;27;20051;-38
2022/04/06 09:11:26;;;;;;;10.70;4.22;;;;;;;;;;5125125;27;20051;-37
2022/04/06 09:13:58;;;;;;;9.30;3.90;;;;;;;;;;5125861;27;20139;-38
2022/04/06 09:16:27;;;;;;;9.45;4.25;;;;;;;;;;5127038;27;20051;-38
2022/04/06 09:18:53;;;;;;;9.38;3.67;;;;;;;;;;5127220;27;20536;-38
2022/04/06 09:21:20;;;;;;;10.77;3.70;;;;;;;;;;5127455;27;20467;-38
2022/04/06 09:23:48;;;;;;;10.93;4.28;;;;;;;;;;5126270;27;20055;-38
2022/04/06 09:26:16;;;;;;;8.75;3.55;;;;;;;;;;5127296;27;20524;-40
2022/04/06 09:28:45;;;;;;;9.18;3.58;;;;;;;;;;5124478;27;20128;-38
2022/04/06 09:31:13;;;;;;;10.50;3.80;;;;;;;;;;5126385;27;20051;-38
2022/04/06 09:33:41;;;;;;;22.92;4.80;;;;;;;;;;5126176;27;20047;-38
2022/04/06 09:36:17;;;;;;;10.20;4.00;;;;;;;;;;5126393;27;20087;-38
2022/04/06 09:38:46;;;;;;;9.73;3.60;;;;;;;;;;5127072;27;20058;-38
2022/04/06 09:41:15;;;;;;;10.82;3.85;;;;;;;;;;5124780;27;20047;-39
2022/04/06 09:43:44;;;;;;;9.25;3.60;;;;;;;;;;5126017;27;20047;-39
2022/04/06 09:49:03;;;;;;;8.70;3.58;;;;;;;;;;5126370;27;20054;-38
2022/04/06 09:51:30;;;;;;;9.15;3.70;;;;;;;;;;5126799;27;20484;-38
2022/04/06 09:53:56;;;;;;;11.93;3.72;;;;;;;;;;5126278;27;20194;-38
2022/04/06 09:56:24;;;;;;;8.00;3.35;;;;;;;;;;5124978;27;20112;-38
2022/04/06 09:58:50;;;;;;;12.32;3.80;;;;;;;;;;5125350;27;20054;-38
2022/04/06 10:01:17;;;;;;;9.35;3.63;;;;;;;;;;5127067;27;20120;-39
2022/04/06 10:03:45;;;;;;;10.20;3.70;;;;;;;;;;5125403;27;20040;-39
2022/04/06 10:06:11;;;;;;;10.00;4.03;;;;;;;;;;5126901;27;20116;-38
2022/04/06 10:08:38;;;;;;;10.73;3.63;;;;;;;;;;5125808;27;20464;-38
2022/04/06 10:11:05;;;;;;;9.20;3.70;;;;;;;;;;5126179;27;20390;-38
2022/04/06 10:13:33;;;;;;;10.20;3.80;;;;;;;;;;5125659;27;20464;-38
2022/04/06 10:16:00;;;;;;;10.85;3.80;;;;;;;;;;5126541;27;20541;-38
2022/04/06 10:18:27;;;;;;;12.75;4.25;;;;;;;;;;5125384;27;20479;-38
2022/04/06 10:20:56;;;;;;;11.18;4.20;;;;;;;;;;5126207;27;20544;-40
2022/04/06 10:23:27;;;;;;;10.55;3.50;;;;;;;;;;5125204;27;20104;-38
2022/04/06 10:25:59;;;;;;;14.68;4.13;;;;;;;;;;5125904;27;20361;-38
2022/04/06 10:28:25;;;;;;;23.10;7.65;;;;;;;;;;5125741;27;20055;-38
2022/04/06 10:31:15;;;;;;;13.63;6.07;;;;;;;;;;5125866;27;20119;-38
2022/04/06 10:33:42;;;;;;;14.80;5.47;;;;;;;;;;5126308;27;20173;-38
2022/04/06 10:36:18;;;;;;;12.50;5.68;;;;;;;;;;5124688;27;20051;-38
2022/04/06 10:39:03;;;;;;;17.40;5.30;;;;;;;;;;5125757;27;20476;-38
2022/04/06 10:41:29;;;;;;;13.50;4.90;;;;;;;;;;5125603;27;20055;-38
2022/04/06 10:43:56;;;;;;;12.98;5.13;;;;;;;;;;5125564;27;20048;-39
2022/04/06 10:46:34;;;;;;;14.07;5.32;;;;;;;;;;5125790;27;20112;-38
2022/04/06 10:49:10;;;;;;;11.57;5.15;;;;;;;;;;5124353;27;20113;-40
2022/04/06 10:51:37;;;;;;;13.77;4.85;;;;;;;;;;5125128;27;20062;-38
2022/04/06 10:54:37;;;;;;;13.82;5.75;;;;;;;;;;5125504;27;20076;-38
2022/04/06 10:57:03;;;;;;;;;;;;;;;;;;5124955;27;20061;-38
2022/04/06 10:59:30;;;;;;;20.13;5.07;;;;;;;;;;5122602;27;19927;-39
2022/04/06 11:02:11;;;;;;;12.90;5.40;;;;;;;;;;5123528;27;20410;-39
2022/04/06 11:04:40;;;;;;;11.98;5.28;;;;;;;;;;5123758;27;20479;-38
2022/04/06 11:07:08;;;;;;;13.65;5.15;;;;;;;;;;5122739;27;20555;-40
2022/04/06 11:12:19;;;;;;;13.05;4.85;;;;;;;;;;5122598;27;20490;-38
2022/04/06 11:14:47;;;;;;;12.50;4.60;;;;;;;;;;5123534;27;20044;-38
2022/04/06 11:17:34;;;;;;;12.52;4.53;;;;;;;;;;5125148;27;20050;-38
2022/04/06 11:20:03;;;;;;;13.38;4.88;;;;;;;;;;5124520;27;20081;-40
2022/04/06 11:22:29;;;;;;;12.50;4.80;;;;;;;;;;5124523;27;20070;-38
2022/04/06 11:24:56;;;;;;;12.40;4.70;;;;;;;;;;5125108;27;20409;-38
2022/04/06 11:27:28;;;;;;;12.82;5.00;;;;;;;;;;5124573;27;20047;-41
2022/04/06 11:30:01;;;;;;;14.45;5.00;;;;;;;;;;5124643;27;20141;-38
2022/04/06 11:32:27;;;;;;;12.77;4.78;;;;;;;;;;5123296;27;20388;-38
2022/04/06 11:34:58;;;;;;;12.73;4.85;;;;;;;;;;5123515;27;20047;-38
2022/04/06 11:37:26;;;;;;;13.88;5.20;;;;;;;;;;5124917;27;20051;-39
2022/04/06 11:39:56;;;;;;;11.50;4.65;;;;;;;;;;5124622;27;20055;-38
2022/04/06 11:42:22;;;;;;;13.30;4.90;;;;;;;;;;5124799;27;20133;-39
2022/04/06 11:44:48;;;;;;;10.25;4.47;;;;;;;;;;5124106;27;20047;-38
2022/04/06 11:47:15;;;;;;;15.65;4.90;;;;;;;;;;5124679;27;20047;-38
2022/04/06 11:49:41;;;;;;;11.32;4.43;;;;;;;;;;5123055;27;20054;-37
2022/04/06 11:52:07;;;;;;;10.52;4.60;;;;;;;;;;5124732;27;20051;-38
2022/04/06 11:54:35;;;;;;;14.25;5.10;;;;;;;;;;5124287;27;20051;-39
2022/04/06 11:57:01;;;;;;;14.80;5.00;;;;;;;;;;5124344;27;20105;-38
2022/04/06 11:59:31;;;;;;;13.00;4.88;;;;;;;;;;5122588;27;20107;-38
2022/04/06 12:01:59;;;;;;;13.50;4.63;;;;;;;;;;5122904;27;20074;-38
2022/04/06 12:04:25;;;;;;;15.45;4.82;;;;;;;;;;5123574;27;20452;-38
2022/04/06 12:06:52;;;;;;;13.02;4.88;;;;;;;;;;5124177;27;20112;-38
2022/04/06 12:09:18;;;;;;;12.68;4.32;;;;;;;;;;5124161;27;20387;-38
2022/04/06 12:11:49;;;;;;;13.88;4.47;;;;;;;;;;5124429;27;20104;-38
2022/04/06 12:14:15;;;;;;;11.95;4.22;;;;;;;;;;5124270;27;20054;-38
2022/04/06 12:16:42;;;;;;;13.70;4.80;;;;;;;;;;5124196;27;20051;-37
2022/04/06 12:19:13;;;;;;;12.13;4.57;;;;;;;;;;5124054;27;20063;-39
2022/04/06 12:21:43;;;;;;;12.65;4.90;;;;;;;;;;5123047;27;20062;-37
2022/04/06 12:24:11;;;;;;;11.00;4.55;;;;;;;;;;5124606;27;20047;-41
2022/04/06 12:26:41;;;;;;;11.52;4.43;;;;;;;;;;5122971;27;20051;-38
2022/04/06 12:29:12;;;;;;;12.43;4.20;;;;;;;;;;5124072;28;20047;-39
2022/04/06 12:31:40;;;;;;;11.05;4.50;;;;;;;;;;5123531;27;20486;-38
2022/04/06 12:34:08;;;;;;;11.20;4.47;;;;;;;;;;5122695;28;20039;-38
2022/04/06 12:36:34;;;;;;;11.70;4.20;;;;;;;;;;5123788;28;20135;-38
2022/04/06 12:39:01;;;;;;;11.52;4.18;;;;;;;;;;5124775;27;20085;-38
2022/04/06 12:41:28;;;;;;;10.35;4.30;;;;;;;;;;5123997;28;20051;-42
2022/04/06 12:43:55;;;;;;;15.00;4.70;;;;;;;;;;5123275;28;20062;-38
2022/04/06 12:46:41;;;;;;;14.73;4.40;;;;;;;;;;5123812;28;20052;-38
2022/04/06 12:49:17;;;;;;;14.25;4.28;;;;;;;;;;5124157;28;20168;-48
2022/04/06 12:51:43;;;;;;;10.77;4.28;;;;;;;;;;5123768;28;20059;-41
2022/04/06 12:54:10;;;;;;;13.60;4.43;;;;;;;;;;5123284;28;20043;-38
2022/04/06 12:56:36;;;;;;;12.88;4.68;;;;;;;;;;5121416;28;20051;-39
2022/04/06 12:59:06;;;;;;;11.40;4.13;;;;;;;;;;5120239;28;20047;-40
2022/04/06 13:01:32;;;;;;;11.13;4.45;;;;;;;;;;5123588;28;20056;-38
2022/04/06 13:04:00;;;;;;;12.43;4.70;;;;;;;;;;5121461;28;20058;-38
2022/04/06 13:06:26;;;;;;;11.82;4.10;;;;;;;;;;5123702;28;20066;-40
2022/04/06 13:08:53;;;;;;;11.70;4.13;;;;;;;;;;5123310;28;20055;-38
2022/04/06 13:11:20;;;;;;;15.20;5.57;;;;;;;;;;5122040;28;20482;-40
2022/04/06 13:13:46;;;;;;;14.15;5.70;;;;;;;;;;5127626;28;20063;-39
2022/04/06 13:16:13;;;;;;;16.30;5.18;;;;;;;;;;5124817;28;20055;-38
2022/04/06 13:18:39;;;;;;;21.20;5.47;;;;;;;;;;5122058;28;20039;-39
2022/04/06 13:21:07;;;;;;;13.98;5.93;;;;;;;;;;5125142;28;20548;-39
2022/04/06 13:23:36;;;;;;;17.25;6.32;;;;;;;;;;5125424;28;20051;-42
2022/04/06 13:26:03;;;;;;;16.38;7.22;;;;;;;;;;5124546;28;20066;-38
2022/04/06 13:28:29;;;;;;;30.10;15.40;;;;;;;;;;5123429;28;20055;-39
2022/04/06 13:30:57;;;;;;;32.85;16.17;;;;;;;;;;5126175;27;20056;-39
2022/04/06 13:33:24;;;;;;;25.00;12.00;;;;;;;;;;5126418;27;20069;-39
2022/04/06 13:35:50;;;;;;;24.17;11.05;;;;;;;;;;5127047;27;20103;-39
2022/04/06 13:38:18;;;;;;;24.23;10.25;;;;;;;;;;5126077;27;20051;-39
2022/04/06 13:40:44;;;;;;;22.95;10.55;;;;;;;;;;5128467;27;20047;-39
2022/04/06 13:43:11;;;;;;;20.05;10.02;;;;;;;;;;5126273;27;20047;-38
2022/04/06 13:45:37;;;;;;;19.10;9.57;;;;;;;;;;5127691;27;20119;-38
2022/04/06 13:48:03;;;;;;;18.52;8.93;;;;;;;;;;5126230;27;20054;-40
2022/04/06 13:50:30;;;;;;;18.83;9.07;;;;;;;;;;5126696;27;20051;-40
2022/04/06 13:52:56;;;;;;;19.90;8.77;;;;;;;;;;5127322;27;20043;-39
2022/04/06 13:55:24;;;;;;;16.75;7.97;;;;;;;;;;5126108;27;20422;-39
2022/04/06 13:57:50;;;;;;;18.00;8.20;;;;;;;;;;5127217;27;20058;-38
2022/04/06 14:00:17;;;;;;;18.55;8.15;;;;;;;;;;5125434;27;20047;-39
2022/04/06 14:02:43;;;;;;;17.17;7.55;;;;;;;;;;5125634;27;20357;-40
2022/04/06 14:05:11;;;;;;;17.85;8.20;;;;;;;;;;5125854;27;20051;-39
2022/04/06 14:07:37;;;;;;;16.77;7.80;;;;;;;;;;5125648;27;20124;-38
2022/04/06 14:10:04;;;;;;;17.23;8.13;;;;;;;;;;5126326;27;20062;-41
2022/04/06 14:12:31;;;;;;;17.38;7.97;;;;;;;;;;5126456;27;20555;-38
2022/04/06 14:14:58;;;;;;;17.42;7.45;;;;;;;;;;5126320;27;20062;-39
2022/04/06 14:17:24;;;;;;;19.88;7.75;;;;;;;;;;5126358;27;20050;-38
2022/04/06 14:19:50;;;;;;;18.55;7.35;;;;;;;;;;5126113;27;20116;-39
2022/04/06 14:22:17;;;;;;;15.65;7.40;;;;;;;;;;5126776;27;20055;-39
2022/04/06 14:27:23;;;;;;;20.38;7.85;;;;;;;;;;5125470;27;20038;-38
2022/04/06 14:29:51;;;;;;;20.98;7.35;;;;;;;;;;5126400;27;20047;-38
2022/04/06 14:32:17;;;;;;;18.63;7.78;;;;;;;;;;5125147;27;20055;-46
2022/04/06 14:34:43;;;;;;;17.25;7.15;;;;;;;;;;5125261;27;20058;-39
2022/04/06 14:37:09;;;;;;;14.82;6.95;;;;;;;;;;5125750;27;20104;-40
2022/04/06 14:39:36;;;;;;;17.30;7.32;;;;;;;;;;5125525;27;20051;-39
2022/04/06 14:42:02;;;;;;;18.10;7.25;;;;;;;;;;5124627;27;20051;-39
2022/04/06 14:44:29;;;;;;;14.60;6.85;;;;;;;;;;5125042;27;20425;-39
2022/04/06 14:46:56;;;;;;;14.35;6.55;;;;;;;;;;5124997;27;20039;-38
2022/04/06 14:49:22;;;;;;;16.35;6.57;;;;;;;;;;5126437;27;20383;-39